sensor_id;sensor_type;location;lat;lon;timestamp;P1;durP1;ratioP1;P2;durP2;ratioP2
7841;SDS011;3966;51.052;13.820;2022-10-16T00:01:16;7.55;;;6.05;;
7841;SDS011;3966;51.052;13.820;2022-10-16T00:03:43;6.88;;;5.57;;
7841;SDS011;3966;51.052;13.820;2022-10-16T00:06:10;10.73;;;5.65;;
7841;SDS011;3966;51.052;13.820;2022-10-16T00:08:37;6.63;;;5.00;;
7841;SDS011;3966;51.052;13.820;2022-10-16T00:11:07;7.60;;;5.93;;
7841;SDS011;3966;51.052;13.820;2022-10-16T00:13:36;8.35;;;5.55;;
7841;SDS011;3966;51.052;13.820;2022-10-16T00:16:03;9.82;;;6.13;;
7841;SDS011;3966;51.052;13.820;2022-10-16T00:18:30;8.75;;;5.93;;
7841;SDS011;3966;51.052;13.820;2022-10-16T00:21:00;10.50;;;6.53;;
7841;SDS011;3966;51.052;13.820;2022-10-16T00:23:27;7.93;;;6.00;;
7841;SDS011;3966;51.052;13.820;2022-10-16T00:25:56;8.63;;;5.88;;
7841;SDS011;3966;51.052;13.820;2022-10-16T00:28:23;6.10;;;5.35;;
7841;SDS011;3966;51.052;13.820;2022-10-16T00:30:49;7.80;;;5.57;;
7841;SDS011;3966;51.052;13.820;2022-10-16T00:33:14;8.65;;;5.63;;
7841;SDS011;3966;51.052;13.820;2022-10-16T00:35:40;9.85;;;5.97;;
7841;SDS011;3966;51.052;13.820;2022-10-16T00:38:05;7.35;;;5.53;;
7841;SDS011;3966;51.052;13.820;2022-10-16T00:40:31;5.75;;;5.10;;
7841;SDS011;3966;51.052;13.820;2022-10-16T00:42:57;6.88;;;5.60;;
7841;SDS011;3966;51.052;13.820;2022-10-16T00:45:22;7.63;;;5.68;;
7841;SDS011;3966;51.052;13.820;2022-10-16T00:47:48;6.85;;;5.43;;
7841;SDS011;3966;51.052;13.820;2022-10-16T00:52:56;6.93;;;5.93;;
7841;SDS011;3966;51.052;13.820;2022-10-16T00:55:23;5.97;;;5.38;;
7841;SDS011;3966;51.052;13.820;2022-10-16T00:57:50;6.05;;;5.45;;
7841;SDS011;3966;51.052;13.820;2022-10-16T01:00:18;6.85;;;6.15;;
7841;SDS011;3966;51.052;13.820;2022-10-16T01:02:51;7.05;;;5.75;;
7841;SDS011;3966;51.052;13.820;2022-10-16T01:05:18;5.82;;;5.22;;
7841;SDS011;3966;51.052;13.820;2022-10-16T01:07:49;6.05;;;5.45;;
7841;SDS011;3966;51.052;13.820;2022-10-16T01:13:10;9.73;;;5.57;;
7841;SDS011;3966;51.052;13.820;2022-10-16T01:18:28;7.13;;;6.32;;
7841;SDS011;3966;51.052;13.820;2022-10-16T01:26:08;6.75;;;5.93;;
7841;SDS011;3966;51.052;13.820;2022-10-16T01:28:52;7.60;;;5.88;;
7841;SDS011;3966;51.052;13.820;2022-10-16T01:31:27;7.90;;;6.53;;
7841;SDS011;3966;51.052;13.820;2022-10-16T01:34:06;8.07;;;6.22;;
7841;SDS011;3966;51.052;13.820;2022-10-16T01:36:38;6.80;;;6.10;;
7841;SDS011;3966;51.052;13.820;2022-10-16T01:39:08;8.52;;;6.28;;
7841;SDS011;3966;51.052;13.820;2022-10-16T01:41:40;8.57;;;6.90;;
7841;SDS011;3966;51.052;13.820;2022-10-16T01:44:10;11.60;;;6.80;;
7841;SDS011;3966;51.052;13.820;2022-10-16T01:46:43;10.93;;;6.82;;
7841;SDS011;3966;51.052;13.820;2022-10-16T01:49:12;7.20;;;5.90;;
7841;SDS011;3966;51.052;13.820;2022-10-16T01:51:38;7.97;;;6.20;;
7841;SDS011;3966;51.052;13.820;2022-10-16T01:54:04;7.20;;;6.43;;
7841;SDS011;3966;51.052;13.820;2022-10-16T01:56:33;6.97;;;6.28;;
7841;SDS011;3966;51.052;13.820;2022-10-16T01:59:01;9.68;;;6.28;;
7841;SDS011;3966;51.052;13.820;2022-10-16T02:01:31;7.88;;;6.82;;
7841;SDS011;3966;51.052;13.820;2022-10-16T02:04:00;10.15;;;6.75;;
7841;SDS011;3966;51.052;13.820;2022-10-16T02:06:30;8.90;;;6.93;;
7841;SDS011;3966;51.052;13.820;2022-10-16T02:08:56;9.90;;;6.97;;
7841;SDS011;3966;51.052;13.820;2022-10-16T02:11:22;11.85;;;7.25;;
7841;SDS011;3966;51.052;13.820;2022-10-16T02:13:48;8.40;;;7.47;;
7841;SDS011;3966;51.052;13.820;2022-10-16T02:16:18;9.07;;;7.43;;
7841;SDS011;3966;51.052;13.820;2022-10-16T02:18:43;9.60;;;7.25;;
7841;SDS011;3966;51.052;13.820;2022-10-16T02:26:30;16.85;;;7.25;;
7841;SDS011;3966;51.052;13.820;2022-10-16T02:29:04;13.43;;;7.10;;
7841;SDS011;3966;51.052;13.820;2022-10-16T02:31:35;9.23;;;7.03;;
7841;SDS011;3966;51.052;13.820;2022-10-16T02:34:06;8.15;;;6.57;;
7841;SDS011;3966;51.052;13.820;2022-10-16T02:36:32;9.63;;;7.45;;
7841;SDS011;3966;51.052;13.820;2022-10-16T02:39:00;7.82;;;6.82;;
7841;SDS011;3966;51.052;13.820;2022-10-16T02:41:28;7.13;;;5.95;;
7841;SDS011;3966;51.052;13.820;2022-10-16T02:43:54;10.40;;;6.90;;
7841;SDS011;3966;51.052;13.820;2022-10-16T02:46:20;8.93;;;6.97;;
7841;SDS011;3966;51.052;13.820;2022-10-16T02:48:46;7.28;;;6.28;;
7841;SDS011;3966;51.052;13.820;2022-10-16T02:51:12;9.35;;;6.65;;
7841;SDS011;3966;51.052;13.820;2022-10-16T02:53:37;9.90;;;6.50;;
7841;SDS011;3966;51.052;13.820;2022-10-16T02:56:03;6.47;;;5.70;;
7841;SDS011;3966;51.052;13.820;2022-10-16T02:58:29;8.55;;;5.75;;
7841;SDS011;3966;51.052;13.820;2022-10-16T03:00:54;6.38;;;5.38;;
7841;SDS011;3966;51.052;13.820;2022-10-16T03:03:20;8.07;;;6.03;;
7841;SDS011;3966;51.052;13.820;2022-10-16T03:05:46;6.78;;;5.50;;
7841;SDS011;3966;51.052;13.820;2022-10-16T03:08:12;7.28;;;5.90;;
7841;SDS011;3966;51.052;13.820;2022-10-16T03:10:37;8.15;;;5.75;;
7841;SDS011;3966;51.052;13.820;2022-10-16T03:13:03;11.20;;;6.03;;
7841;SDS011;3966;51.052;13.820;2022-10-16T03:15:28;8.23;;;5.47;;
7841;SDS011;3966;51.052;13.820;2022-10-16T03:17:54;6.03;;;5.43;;
7841;SDS011;3966;51.052;13.820;2022-10-16T03:20:22;11.68;;;5.50;;
7841;SDS011;3966;51.052;13.820;2022-10-16T03:22:47;13.50;;;6.25;;
7841;SDS011;3966;51.052;13.820;2022-10-16T03:25:13;7.53;;;5.72;;
7841;SDS011;3966;51.052;13.820;2022-10-16T03:27:38;6.90;;;5.68;;
7841;SDS011;3966;51.052;13.820;2022-10-16T03:30:04;7.85;;;5.65;;
7841;SDS011;3966;51.052;13.820;2022-10-16T03:32:30;7.13;;;5.63;;
7841;SDS011;3966;51.052;13.820;2022-10-16T03:34:56;6.82;;;5.28;;
7841;SDS011;3966;51.052;13.820;2022-10-16T03:37:21;8.52;;;5.82;;
7841;SDS011;3966;51.052;13.820;2022-10-16T03:39:47;7.25;;;5.47;;
7841;SDS011;3966;51.052;13.820;2022-10-16T03:42:13;10.13;;;5.50;;
7841;SDS011;3966;51.052;13.820;2022-10-16T03:44:38;7.70;;;5.80;;
7841;SDS011;3966;51.052;13.820;2022-10-16T03:47:04;7.65;;;4.88;;
7841;SDS011;3966;51.052;13.820;2022-10-16T03:49:29;6.40;;;5.22;;
7841;SDS011;3966;51.052;13.820;2022-10-16T03:51:55;5.88;;;5.30;;
7841;SDS011;3966;51.052;13.820;2022-10-16T03:54:20;6.72;;;5.88;;
7841;SDS011;3966;51.052;13.820;2022-10-16T03:56:47;7.22;;;5.97;;
7841;SDS011;3966;51.052;13.820;2022-10-16T03:59:12;9.57;;;6.03;;
7841;SDS011;3966;51.052;13.820;2022-10-16T04:01:38;6.95;;;6.07;;
7841;SDS011;3966;51.052;13.820;2022-10-16T04:04:03;10.73;;;6.00;;
7841;SDS011;3966;51.052;13.820;2022-10-16T04:06:29;6.20;;;5.63;;
7841;SDS011;3966;51.052;13.820;2022-10-16T04:08:55;6.70;;;5.93;;
7841;SDS011;3966;51.052;13.820;2022-10-16T04:11:21;8.20;;;6.00;;
7841;SDS011;3966;51.052;13.820;2022-10-16T04:13:46;6.97;;;5.82;;
7841;SDS011;3966;51.052;13.820;2022-10-16T04:16:12;8.07;;;6.32;;
7841;SDS011;3966;51.052;13.820;2022-10-16T04:18:37;6.60;;;6.00;;
7841;SDS011;3966;51.052;13.820;2022-10-16T04:21:03;8.02;;;5.97;;
7841;SDS011;3966;51.052;13.820;2022-10-16T04:23:30;10.25;;;7.25;;
7841;SDS011;3966;51.052;13.820;2022-10-16T04:25:56;9.30;;;7.03;;
7841;SDS011;3966;51.052;13.820;2022-10-16T04:28:21;8.38;;;7.00;;
7841;SDS011;3966;51.052;13.820;2022-10-16T04:30:47;9.13;;;6.22;;
7841;SDS011;3966;51.052;13.820;2022-10-16T04:33:13;6.70;;;5.88;;
7841;SDS011;3966;51.052;13.820;2022-10-16T04:35:38;7.20;;;5.90;;
7841;SDS011;3966;51.052;13.820;2022-10-16T04:38:04;7.18;;;6.47;;
7841;SDS011;3966;51.052;13.820;2022-10-16T04:40:29;7.25;;;6.55;;
7841;SDS011;3966;51.052;13.820;2022-10-16T04:42:57;7.05;;;6.00;;
7841;SDS011;3966;51.052;13.820;2022-10-16T04:45:23;6.75;;;5.90;;
7841;SDS011;3966;51.052;13.820;2022-10-16T04:47:49;8.15;;;6.18;;
7841;SDS011;3966;51.052;13.820;2022-10-16T04:50:15;9.20;;;6.22;;
7841;SDS011;3966;51.052;13.820;2022-10-16T04:52:40;6.75;;;5.80;;
7841;SDS011;3966;51.052;13.820;2022-10-16T04:55:06;8.10;;;6.03;;
7841;SDS011;3966;51.052;13.820;2022-10-16T04:57:32;7.38;;;6.55;;
7841;SDS011;3966;51.052;13.820;2022-10-16T04:59:58;7.60;;;6.15;;
7841;SDS011;3966;51.052;13.820;2022-10-16T05:02:24;7.07;;;6.38;;
7841;SDS011;3966;51.052;13.820;2022-10-16T05:04:50;8.82;;;6.93;;
7841;SDS011;3966;51.052;13.820;2022-10-16T05:07:16;8.63;;;5.93;;
7841;SDS011;3966;51.052;13.820;2022-10-16T05:09:42;7.30;;;6.57;;
7841;SDS011;3966;51.052;13.820;2022-10-16T05:12:07;8.02;;;6.65;;
7841;SDS011;3966;51.052;13.820;2022-10-16T05:14:33;8.65;;;7.07;;
7841;SDS011;3966;51.052;13.820;2022-10-16T05:16:59;7.57;;;6.78;;
7841;SDS011;3966;51.052;13.820;2022-10-16T05:19:25;10.27;;;6.47;;
7841;SDS011;3966;51.052;13.820;2022-10-16T05:21:51;10.50;;;6.55;;
7841;SDS011;3966;51.052;13.820;2022-10-16T05:24:16;7.78;;;6.78;;
7841;SDS011;3966;51.052;13.820;2022-10-16T05:26:42;7.53;;;6.75;;
7841;SDS011;3966;51.052;13.820;2022-10-16T05:29:07;11.13;;;6.88;;
7841;SDS011;3966;51.052;13.820;2022-10-16T05:31:34;7.22;;;6.53;;
7841;SDS011;3966;51.052;13.820;2022-10-16T05:33:59;8.35;;;7.35;;
7841;SDS011;3966;51.052;13.820;2022-10-16T05:36:25;9.02;;;6.93;;
7841;SDS011;3966;51.052;13.820;2022-10-16T05:38:51;6.97;;;6.18;;
7841;SDS011;3966;51.052;13.820;2022-10-16T05:41:17;6.85;;;6.15;;
7841;SDS011;3966;51.052;13.820;2022-10-16T05:43:49;7.38;;;6.68;;
7841;SDS011;3966;51.052;13.820;2022-10-16T05:46:15;9.52;;;7.65;;
7841;SDS011;3966;51.052;13.820;2022-10-16T05:48:41;11.57;;;8.45;;
7841;SDS011;3966;51.052;13.820;2022-10-16T05:51:07;8.60;;;7.63;;
7841;SDS011;3966;51.052;13.820;2022-10-16T05:53:36;8.15;;;7.35;;
7841;SDS011;3966;51.052;13.820;2022-10-16T05:56:03;9.98;;;7.95;;
7841;SDS011;3966;51.052;13.820;2022-10-16T05:58:33;11.52;;;7.72;;
7841;SDS011;3966;51.052;13.820;2022-10-16T06:01:04;9.60;;;7.90;;
7841;SDS011;3966;51.052;13.820;2022-10-16T06:03:32;8.75;;;7.03;;
7841;SDS011;3966;51.052;13.820;2022-10-16T06:05:58;9.13;;;7.40;;
7841;SDS011;3966;51.052;13.820;2022-10-16T06:08:24;8.65;;;7.30;;
7841;SDS011;3966;51.052;13.820;2022-10-16T06:10:59;9.25;;;6.95;;
7841;SDS011;3966;51.052;13.820;2022-10-16T06:13:26;16.55;;;9.48;;
7841;SDS011;3966;51.052;13.820;2022-10-16T06:15:52;12.52;;;8.38;;
7841;SDS011;3966;51.052;13.820;2022-10-16T06:18:18;11.25;;;8.93;;
7841;SDS011;3966;51.052;13.820;2022-10-16T06:20:43;8.10;;;7.13;;
7841;SDS011;3966;51.052;13.820;2022-10-16T06:23:08;11.00;;;7.85;;
7841;SDS011;3966;51.052;13.820;2022-10-16T06:25:34;9.88;;;8.10;;
7841;SDS011;3966;51.052;13.820;2022-10-16T06:28:00;15.93;;;8.85;;
7841;SDS011;3966;51.052;13.820;2022-10-16T06:30:25;10.60;;;8.77;;
7841;SDS011;3966;51.052;13.820;2022-10-16T06:32:51;11.25;;;9.05;;
7841;SDS011;3966;51.052;13.820;2022-10-16T06:35:16;11.05;;;9.23;;
7841;SDS011;3966;51.052;13.820;2022-10-16T06:37:42;12.57;;;9.38;;
7841;SDS011;3966;51.052;13.820;2022-10-16T06:40:07;13.40;;;8.77;;
7841;SDS011;3966;51.052;13.820;2022-10-16T06:42:33;12.05;;;9.25;;
7841;SDS011;3966;51.052;13.820;2022-10-16T06:44:58;11.00;;;8.55;;
7841;SDS011;3966;51.052;13.820;2022-10-16T06:47:24;10.77;;;8.82;;
7841;SDS011;3966;51.052;13.820;2022-10-16T06:49:50;22.85;;;9.77;;
7841;SDS011;3966;51.052;13.820;2022-10-16T06:52:15;11.70;;;8.88;;
7841;SDS011;3966;51.052;13.820;2022-10-16T06:54:41;10.98;;;9.30;;
7841;SDS011;3966;51.052;13.820;2022-10-16T06:57:06;12.57;;;8.50;;
7841;SDS011;3966;51.052;13.820;2022-10-16T06:59:32;9.30;;;8.02;;
7841;SDS011;3966;51.052;13.820;2022-10-16T07:01:58;12.40;;;9.25;;
7841;SDS011;3966;51.052;13.820;2022-10-16T07:04:23;9.43;;;7.82;;
7841;SDS011;3966;51.052;13.820;2022-10-16T07:06:48;10.93;;;7.53;;
7841;SDS011;3966;51.052;13.820;2022-10-16T07:09:14;8.23;;;7.43;;
7841;SDS011;3966;51.052;13.820;2022-10-16T07:11:41;12.35;;;9.60;;
7841;SDS011;3966;51.052;13.820;2022-10-16T07:14:16;11.68;;;7.95;;
7841;SDS011;3966;51.052;13.820;2022-10-16T07:16:44;9.43;;;7.60;;
7841;SDS011;3966;51.052;13.820;2022-10-16T07:19:09;10.82;;;8.38;;
7841;SDS011;3966;51.052;13.820;2022-10-16T07:21:37;8.68;;;7.45;;
7841;SDS011;3966;51.052;13.820;2022-10-16T07:24:03;10.55;;;8.15;;
7841;SDS011;3966;51.052;13.820;2022-10-16T07:26:32;9.25;;;7.15;;
7841;SDS011;3966;51.052;13.820;2022-10-16T07:28:59;9.63;;;8.45;;
7841;SDS011;3966;51.052;13.820;2022-10-16T07:31:25;11.32;;;8.90;;
7841;SDS011;3966;51.052;13.820;2022-10-16T07:33:51;9.18;;;8.18;;
7841;SDS011;3966;51.052;13.820;2022-10-16T07:36:18;14.13;;;8.18;;
7841;SDS011;3966;51.052;13.820;2022-10-16T07:38:44;9.57;;;7.80;;
7841;SDS011;3966;51.052;13.820;2022-10-16T07:41:11;8.82;;;7.93;;
7841;SDS011;3966;51.052;13.820;2022-10-16T07:43:39;8.20;;;7.25;;
7841;SDS011;3966;51.052;13.820;2022-10-16T07:46:04;9.43;;;8.07;;
7841;SDS011;3966;51.052;13.820;2022-10-16T07:48:31;8.57;;;7.40;;
7841;SDS011;3966;51.052;13.820;2022-10-16T07:50:58;9.25;;;7.72;;
7841;SDS011;3966;51.052;13.820;2022-10-16T07:53:25;10.65;;;7.28;;
7841;SDS011;3966;51.052;13.820;2022-10-16T07:55:52;9.23;;;8.25;;
7841;SDS011;3966;51.052;13.820;2022-10-16T07:58:21;8.40;;;7.25;;
7841;SDS011;3966;51.052;13.820;2022-10-16T08:00:47;9.32;;;7.75;;
7841;SDS011;3966;51.052;13.820;2022-10-16T08:03:12;8.43;;;7.03;;
7841;SDS011;3966;51.052;13.820;2022-10-16T08:05:38;10.07;;;7.25;;
7841;SDS011;3966;51.052;13.820;2022-10-16T08:08:03;9.07;;;7.95;;
7841;SDS011;3966;51.052;13.820;2022-10-16T08:10:29;8.25;;;7.43;;
7841;SDS011;3966;51.052;13.820;2022-10-16T08:12:54;9.20;;;7.68;;
7841;SDS011;3966;51.052;13.820;2022-10-16T08:15:20;7.78;;;6.63;;
7841;SDS011;3966;51.052;13.820;2022-10-16T08:17:59;8.18;;;7.28;;
7841;SDS011;3966;51.052;13.820;2022-10-16T08:20:27;13.20;;;7.03;;
7841;SDS011;3966;51.052;13.820;2022-10-16T08:22:53;9.30;;;6.10;;
7841;SDS011;3966;51.052;13.820;2022-10-16T08:25:20;4.80;;;4.30;;
7841;SDS011;3966;51.052;13.820;2022-10-16T08:27:47;4.97;;;4.18;;
7841;SDS011;3966;51.052;13.820;2022-10-16T08:30:12;5.47;;;3.55;;
7841;SDS011;3966;51.052;13.820;2022-10-16T08:32:39;5.18;;;4.55;;
7841;SDS011;3966;51.052;13.820;2022-10-16T08:35:06;4.03;;;3.72;;
7841;SDS011;3966;51.052;13.820;2022-10-16T08:37:32;4.60;;;4.10;;
7841;SDS011;3966;51.052;13.820;2022-10-16T08:39:58;4.00;;;3.60;;
7841;SDS011;3966;51.052;13.820;2022-10-16T08:50:43;3.92;;;3.35;;
7841;SDS011;3966;51.052;13.820;2022-10-16T08:53:13;3.75;;;3.45;;
7841;SDS011;3966;51.052;13.820;2022-10-16T08:55:43;5.35;;;4.47;;
7841;SDS011;3966;51.052;13.820;2022-10-16T08:58:20;5.10;;;4.70;;
7841;SDS011;3966;51.052;13.820;2022-10-16T09:00:53;4.63;;;4.27;;
7841;SDS011;3966;51.052;13.820;2022-10-16T09:03:47;5.93;;;4.82;;
7841;SDS011;3966;51.052;13.820;2022-10-16T09:07:01;4.53;;;4.07;;
7841;SDS011;3966;51.052;13.820;2022-10-16T09:10:03;5.57;;;4.63;;
7841;SDS011;3966;51.052;13.820;2022-10-16T09:12:37;4.57;;;4.15;;
7841;SDS011;3966;51.052;13.820;2022-10-16T09:20:45;5.28;;;4.78;;
7841;SDS011;3966;51.052;13.820;2022-10-16T09:23:15;5.18;;;4.72;;
7841;SDS011;3966;51.052;13.820;2022-10-16T09:25:55;5.22;;;4.00;;
7841;SDS011;3966;51.052;13.820;2022-10-16T09:28:23;4.30;;;3.90;;
7841;SDS011;3966;51.052;13.820;2022-10-16T09:30:49;6.28;;;4.47;;
7841;SDS011;3966;51.052;13.820;2022-10-16T09:33:17;4.55;;;4.15;;
7841;SDS011;3966;51.052;13.820;2022-10-16T09:35:49;6.30;;;5.57;;
7841;SDS011;3966;51.052;13.820;2022-10-16T09:40:51;6.30;;;5.70;;
7841;SDS011;3966;51.052;13.820;2022-10-16T09:43:24;6.63;;;5.93;;
7841;SDS011;3966;51.052;13.820;2022-10-16T09:46:00;6.57;;;5.90;;
7841;SDS011;3966;51.052;13.820;2022-10-16T09:48:30;9.85;;;7.03;;
7841;SDS011;3966;51.052;13.820;2022-10-16T09:51:00;8.07;;;6.78;;
7841;SDS011;3966;51.052;13.820;2022-10-16T09:54:29;7.43;;;6.32;;
7841;SDS011;3966;51.052;13.820;2022-10-16T09:56:29;8.88;;;6.93;;
7841;SDS011;3966;51.052;13.820;2022-10-16T09:59:01;7.05;;;6.40;;
7841;SDS011;3966;51.052;13.820;2022-10-16T10:01:41;8.57;;;6.70;;
7841;SDS011;3966;51.052;13.820;2022-10-16T10:04:09;7.72;;;6.20;;
7841;SDS011;3966;51.052;13.820;2022-10-16T10:09:42;7.13;;;6.18;;
7841;SDS011;3966;51.052;13.820;2022-10-16T10:12:20;6.28;;;5.65;;
7841;SDS011;3966;51.052;13.820;2022-10-16T10:14:53;5.50;;;5.00;;
7841;SDS011;3966;51.052;13.820;2022-10-16T10:17:22;6.05;;;5.45;;
7841;SDS011;3966;51.052;13.820;2022-10-16T10:19:59;4.93;;;4.53;;
7841;SDS011;3966;51.052;13.820;2022-10-16T10:32:38;4.82;;;4.30;;
7841;SDS011;3966;51.052;13.820;2022-10-16T10:35:21;4.32;;;3.92;;
7841;SDS011;3966;51.052;13.820;2022-10-16T10:38:00;4.20;;;3.85;;
7841;SDS011;3966;51.052;13.820;2022-10-16T10:43:22;2.95;;;2.75;;
7841;SDS011;3966;51.052;13.820;2022-10-16T10:46:13;2.78;;;2.58;;
7841;SDS011;3966;51.052;13.820;2022-10-16T10:54:15;3.45;;;3.10;;
7841;SDS011;3966;51.052;13.820;2022-10-16T10:56:56;3.50;;;3.03;;
7841;SDS011;3966;51.052;13.820;2022-10-16T11:02:35;3.78;;;3.47;;
7841;SDS011;3966;51.052;13.820;2022-10-16T11:07:57;3.30;;;3.10;;
7841;SDS011;3966;51.052;13.820;2022-10-16T11:15:52;2.47;;;2.28;;
7841;SDS011;3966;51.052;13.820;2022-10-16T11:18:23;1.95;;;1.85;;
7841;SDS011;3966;51.052;13.820;2022-10-16T11:21:10;0.80;;;0.80;;
7841;SDS011;3966;51.052;13.820;2022-10-16T11:23:48;3.17;;;0.70;;
7841;SDS011;3966;51.052;13.820;2022-10-16T11:26:33;0.80;;;0.80;;
7841;SDS011;3966;51.052;13.820;2022-10-16T11:29:01;0.52;;;0.52;;
7841;SDS011;3966;51.052;13.820;2022-10-16T11:31:30;0.88;;;0.45;;
7841;SDS011;3966;51.052;13.820;2022-10-16T11:39:30;1.88;;;0.30;;
7841;SDS011;3966;51.052;13.820;2022-10-16T11:42:05;0.90;;;0.40;;
7841;SDS011;3966;51.052;13.820;2022-10-16T11:44:51;0.40;;;0.40;;
7841;SDS011;3966;51.052;13.820;2022-10-16T11:50:01;0.22;;;0.22;;
7841;SDS011;3966;51.052;13.820;2022-10-16T11:55:24;1.45;;;0.40;;
7841;SDS011;3966;51.052;13.820;2022-10-16T12:00:39;0.30;;;0.30;;
7841;SDS011;3966;51.052;13.820;2022-10-16T12:06:12;6.97;;;0.45;;
7841;SDS011;3966;51.052;13.820;2022-10-16T12:08:56;0.30;;;0.30;;
7841;SDS011;3966;51.052;13.820;2022-10-16T12:16:54;0.60;;;0.50;;
7841;SDS011;3966;51.052;13.820;2022-10-16T12:19:22;0.75;;;0.50;;
7841;SDS011;3966;51.052;13.820;2022-10-16T12:21:49;0.40;;;0.40;;
7841;SDS011;3966;51.052;13.820;2022-10-16T12:27:02;0.93;;;0.60;;
7841;SDS011;3966;51.052;13.820;2022-10-16T12:29:40;0.30;;;0.30;;
7841;SDS011;3966;51.052;13.820;2022-10-16T12:32:28;0.52;;;0.52;;
7841;SDS011;3966;51.052;13.820;2022-10-16T12:34:56;1.38;;;0.40;;
7841;SDS011;3966;51.052;13.820;2022-10-16T12:39:50;0.85;;;0.35;;
7841;SDS011;3966;51.052;13.820;2022-10-16T12:44:52;1.00;;;0.38;;
7841;SDS011;3966;51.052;13.820;2022-10-16T12:47:19;2.38;;;0.43;;
7841;SDS011;3966;51.052;13.820;2022-10-16T12:50:00;0.40;;;0.40;;
7841;SDS011;3966;51.052;13.820;2022-10-16T12:54:55;0.77;;;0.38;;
7841;SDS011;3966;51.052;13.820;2022-10-16T13:00:32;0.40;;;0.40;;
7841;SDS011;3966;51.052;13.820;2022-10-16T13:06:08;0.80;;;0.40;;
7841;SDS011;3966;51.052;13.820;2022-10-16T13:11:41;0.40;;;0.40;;
7841;SDS011;3966;51.052;13.820;2022-10-16T13:17:18;0.32;;;0.32;;
7841;SDS011;3966;51.052;13.820;2022-10-16T13:25:02;0.30;;;0.30;;
7841;SDS011;3966;51.052;13.820;2022-10-16T13:27:37;0.30;;;0.30;;
7841;SDS011;3966;51.052;13.820;2022-10-16T13:32:38;0.40;;;0.40;;
7841;SDS011;3966;51.052;13.820;2022-10-16T13:35:18;0.60;;;0.50;;
7841;SDS011;3966;51.052;13.820;2022-10-16T13:38:02;0.40;;;0.40;;
7841;SDS011;3966;51.052;13.820;2022-10-16T13:40:28;0.93;;;0.43;;
7841;SDS011;3966;51.052;13.820;2022-10-16T13:42:54;0.30;;;0.30;;
7841;SDS011;3966;51.052;13.820;2022-10-16T13:45:20;0.40;;;0.40;;
7841;SDS011;3966;51.052;13.820;2022-10-16T13:47:48;2.25;;;0.40;;
7841;SDS011;3966;51.052;13.820;2022-10-16T13:50:15;0.30;;;0.30;;
7841;SDS011;3966;51.052;13.820;2022-10-16T13:52:42;0.63;;;0.50;;
7841;SDS011;3966;51.052;13.820;2022-10-16T13:55:11;1.15;;;0.60;;
7841;SDS011;3966;51.052;13.820;2022-10-16T13:57:42;3.47;;;0.73;;
7841;SDS011;3966;51.052;13.820;2022-10-16T14:02:50;2.72;;;0.80;;
7841;SDS011;3966;51.052;13.820;2022-10-16T14:05:22;2.45;;;0.68;;
7841;SDS011;3966;51.052;13.820;2022-10-16T14:07:49;4.03;;;0.63;;
7841;SDS011;3966;51.052;13.820;2022-10-16T14:10:27;0.93;;;0.50;;
7841;SDS011;3966;51.052;13.820;2022-10-16T14:13:04;0.50;;;0.50;;
7841;SDS011;3966;51.052;13.820;2022-10-16T14:15:31;2.17;;;0.60;;
7841;SDS011;3966;51.052;13.820;2022-10-16T14:17:59;0.60;;;0.60;;
7841;SDS011;3966;51.052;13.820;2022-10-16T14:20:32;1.52;;;0.43;;
7841;SDS011;3966;51.052;13.820;2022-10-16T14:25:43;0.88;;;0.50;;
7841;SDS011;3966;51.052;13.820;2022-10-16T14:28:16;3.25;;;0.60;;
7841;SDS011;3966;51.052;13.820;2022-10-16T14:30:50;4.00;;;0.90;;
7841;SDS011;3966;51.052;13.820;2022-10-16T14:36:02;1.10;;;1.00;;
7841;SDS011;3966;51.052;13.820;2022-10-16T14:38:30;1.75;;;0.73;;
7841;SDS011;3966;51.052;13.820;2022-10-16T14:40:57;0.63;;;0.60;;
7841;SDS011;3966;51.052;13.820;2022-10-16T14:45:57;0.70;;;0.60;;
7841;SDS011;3966;51.052;13.820;2022-10-16T14:48:23;1.42;;;0.88;;
7841;SDS011;3966;51.052;13.820;2022-10-16T14:50:52;1.80;;;1.10;;
7841;SDS011;3966;51.052;13.820;2022-10-16T14:53:18;1.65;;;0.90;;
7841;SDS011;3966;51.052;13.820;2022-10-16T14:55:44;2.28;;;0.60;;
7841;SDS011;3966;51.052;13.820;2022-10-16T14:58:16;1.00;;;0.88;;
7841;SDS011;3966;51.052;13.820;2022-10-16T15:00:45;3.25;;;1.05;;
7841;SDS011;3966;51.052;13.820;2022-10-16T15:03:11;3.13;;;1.00;;
7841;SDS011;3966;51.052;13.820;2022-10-16T15:05:36;3.35;;;1.92;;
7841;SDS011;3966;51.052;13.820;2022-10-16T15:08:02;1.83;;;0.80;;
7841;SDS011;3966;51.052;13.820;2022-10-16T15:10:29;1.70;;;0.65;;
7841;SDS011;3966;51.052;13.820;2022-10-16T15:13:00;1.00;;;0.57;;
7841;SDS011;3966;51.052;13.820;2022-10-16T15:15:28;1.63;;;0.70;;
7841;SDS011;3966;51.052;13.820;2022-10-16T15:18:05;0.90;;;0.60;;
7841;SDS011;3966;51.052;13.820;2022-10-16T15:20:31;1.15;;;0.90;;
7841;SDS011;3966;51.052;13.820;2022-10-16T15:23:02;0.70;;;0.70;;
7841;SDS011;3966;51.052;13.820;2022-10-16T15:25:45;3.60;;;1.10;;
7841;SDS011;3966;51.052;13.820;2022-10-16T15:28:12;1.95;;;0.70;;
7841;SDS011;3966;51.052;13.820;2022-10-16T15:30:39;0.68;;;0.68;;
7841;SDS011;3966;51.052;13.820;2022-10-16T15:33:10;2.58;;;0.98;;
7841;SDS011;3966;51.052;13.820;2022-10-16T15:35:40;0.90;;;0.90;;
7841;SDS011;3966;51.052;13.820;2022-10-16T15:38:06;1.17;;;0.60;;
7841;SDS011;3966;51.052;13.820;2022-10-16T15:40:34;10.73;;;0.93;;
7841;SDS011;3966;51.052;13.820;2022-10-16T15:42:59;3.47;;;0.98;;
7841;SDS011;3966;51.052;13.820;2022-10-16T15:45:25;2.22;;;0.90;;
7841;SDS011;3966;51.052;13.820;2022-10-16T15:47:50;2.53;;;2.33;;
7841;SDS011;3966;51.052;13.820;2022-10-16T15:50:16;2.55;;;1.40;;
7841;SDS011;3966;51.052;13.820;2022-10-16T15:52:41;1.20;;;1.10;;
7841;SDS011;3966;51.052;13.820;2022-10-16T15:55:11;2.50;;;0.90;;
7841;SDS011;3966;51.052;13.820;2022-10-16T15:57:38;4.10;;;1.00;;
7841;SDS011;3966;51.052;13.820;2022-10-16T16:00:09;1.95;;;1.13;;
7841;SDS011;3966;51.052;13.820;2022-10-16T16:02:40;3.58;;;1.20;;
7841;SDS011;3966;51.052;13.820;2022-10-16T16:05:07;1.88;;;1.00;;
7841;SDS011;3966;51.052;13.820;2022-10-16T16:07:34;3.58;;;1.33;;
7841;SDS011;3966;51.052;13.820;2022-10-16T16:10:01;1.58;;;1.30;;
7841;SDS011;3966;51.052;13.820;2022-10-16T16:12:28;1.13;;;1.02;;
7841;SDS011;3966;51.052;13.820;2022-10-16T16:14:54;2.35;;;1.20;;
7841;SDS011;3966;51.052;13.820;2022-10-16T16:17:19;2.67;;;1.40;;
7841;SDS011;3966;51.052;13.820;2022-10-16T16:19:45;2.25;;;1.00;;
7841;SDS011;3966;51.052;13.820;2022-10-16T16:22:11;1.10;;;0.93;;
7841;SDS011;3966;51.052;13.820;2022-10-16T16:24:36;1.77;;;1.15;;
7841;SDS011;3966;51.052;13.820;2022-10-16T16:27:02;1.60;;;1.50;;
7841;SDS011;3966;51.052;13.820;2022-10-16T16:29:27;3.45;;;1.42;;
7841;SDS011;3966;51.052;13.820;2022-10-16T16:31:53;2.88;;;1.05;;
7841;SDS011;3966;51.052;13.820;2022-10-16T16:34:22;2.95;;;1.45;;
7841;SDS011;3966;51.052;13.820;2022-10-16T16:36:49;2.83;;;1.20;;
7841;SDS011;3966;51.052;13.820;2022-10-16T16:39:15;2.08;;;1.27;;
7841;SDS011;3966;51.052;13.820;2022-10-16T16:41:40;4.05;;;1.50;;
7841;SDS011;3966;51.052;13.820;2022-10-16T16:44:07;3.63;;;2.33;;
7841;SDS011;3966;51.052;13.820;2022-10-16T16:46:35;2.88;;;2.60;;
7841;SDS011;3966;51.052;13.820;2022-10-16T16:49:01;4.65;;;3.75;;
7841;SDS011;3966;51.052;13.820;2022-10-16T16:51:27;9.43;;;6.20;;
7841;SDS011;3966;51.052;13.820;2022-10-16T16:53:54;12.57;;;7.80;;
7841;SDS011;3966;51.052;13.820;2022-10-16T16:56:20;5.40;;;3.92;;
7841;SDS011;3966;51.052;13.820;2022-10-16T16:58:48;8.18;;;6.05;;
7841;SDS011;3966;51.052;13.820;2022-10-16T17:01:14;13.63;;;6.80;;
7841;SDS011;3966;51.052;13.820;2022-10-16T17:03:41;16.77;;;7.22;;
7841;SDS011;3966;51.052;13.820;2022-10-16T17:06:12;15.80;;;7.20;;
7841;SDS011;3966;51.052;13.820;2022-10-16T17:08:39;17.95;;;5.88;;
7841;SDS011;3966;51.052;13.820;2022-10-16T17:11:05;14.77;;;7.50;;
7841;SDS011;3966;51.052;13.820;2022-10-16T17:13:37;10.90;;;6.30;;
7841;SDS011;3966;51.052;13.820;2022-10-16T17:16:03;10.32;;;6.25;;
7841;SDS011;3966;51.052;13.820;2022-10-16T17:18:30;17.25;;;9.07;;
7841;SDS011;3966;51.052;13.820;2022-10-16T17:21:04;14.07;;;7.10;;